sensor_id;sensor_type;location;lat;lon;timestamp;P1;durP1;ratioP1;P2;durP2;ratioP2
15342;SDS011;7771;48.478;8.936;2023-07-29T00:02:19;5.10;;;2.60;;
15342;SDS011;7771;48.478;8.936;2023-07-29T00:04:46;3.95;;;3.22;;
15342;SDS011;7771;48.478;8.936;2023-07-29T00:07:12;6.32;;;3.03;;
15342;SDS011;7771;48.478;8.936;2023-07-29T00:09:40;5.55;;;3.30;;
15342;SDS011;7771;48.478;8.936;2023-07-29T00:12:07;6.10;;;3.78;;
15342;SDS011;7771;48.478;8.936;2023-07-29T00:14:34;11.35;;;4.03;;
15342;SDS011;7771;48.478;8.936;2023-07-29T00:17:01;9.77;;;4.72;;
15342;SDS011;7771;48.478;8.936;2023-07-29T00:19:27;15.38;;;5.95;;
15342;SDS011;7771;48.478;8.936;2023-07-29T00:21:55;9.13;;;4.80;;
15342;SDS011;7771;48.478;8.936;2023-07-29T00:24:21;7.22;;;4.28;;
15342;SDS011;7771;48.478;8.936;2023-07-29T00:26:49;5.62;;;4.93;;
15342;SDS011;7771;48.478;8.936;2023-07-29T00:29:15;9.52;;;4.78;;
15342;SDS011;7771;48.478;8.936;2023-07-29T00:31:43;7.03;;;5.43;;
15342;SDS011;7771;48.478;8.936;2023-07-29T00:34:11;16.48;;;6.22;;
15342;SDS011;7771;48.478;8.936;2023-07-29T00:36:37;21.37;;;5.85;;
15342;SDS011;7771;48.478;8.936;2023-07-29T00:39:05;23.62;;;6.18;;
15342;SDS011;7771;48.478;8.936;2023-07-29T00:41:33;18.75;;;5.93;;
15342;SDS011;7771;48.478;8.936;2023-07-29T00:43:59;11.35;;;5.10;;
15342;SDS011;7771;48.478;8.936;2023-07-29T00:46:28;23.77;;;5.68;;
15342;SDS011;7771;48.478;8.936;2023-07-29T00:48:54;36.83;;;5.15;;
15342;SDS011;7771;48.478;8.936;2023-07-29T00:51:22;13.35;;;4.72;;
15342;SDS011;7771;48.478;8.936;2023-07-29T00:53:50;12.07;;;4.40;;
15342;SDS011;7771;48.478;8.936;2023-07-29T00:56:18;5.95;;;3.70;;
15342;SDS011;7771;48.478;8.936;2023-07-29T00:58:44;7.78;;;4.28;;
15342;SDS011;7771;48.478;8.936;2023-07-29T01:01:12;7.55;;;3.92;;
15342;SDS011;7771;48.478;8.936;2023-07-29T01:03:40;6.50;;;3.67;;
15342;SDS011;7771;48.478;8.936;2023-07-29T01:06:10;6.75;;;3.53;;
15342;SDS011;7771;48.478;8.936;2023-07-29T01:08:38;6.68;;;3.65;;
15342;SDS011;7771;48.478;8.936;2023-07-29T01:11:33;4.55;;;3.28;;
15342;SDS011;7771;48.478;8.936;2023-07-29T01:14:04;5.53;;;3.00;;
15342;SDS011;7771;48.478;8.936;2023-07-29T01:16:34;5.00;;;3.20;;
15342;SDS011;7771;48.478;8.936;2023-07-29T01:19:12;6.32;;;3.12;;
15342;SDS011;7771;48.478;8.936;2023-07-29T01:21:37;6.30;;;2.42;;
15342;SDS011;7771;48.478;8.936;2023-07-29T01:24:04;4.03;;;2.70;;
15342;SDS011;7771;48.478;8.936;2023-07-29T01:26:31;4.40;;;2.72;;
15342;SDS011;7771;48.478;8.936;2023-07-29T01:28:58;9.25;;;6.00;;
15342;SDS011;7771;48.478;8.936;2023-07-29T01:31:27;8.27;;;3.12;;
15342;SDS011;7771;48.478;8.936;2023-07-29T01:33:58;4.97;;;2.50;;
15342;SDS011;7771;48.478;8.936;2023-07-29T01:36:27;4.12;;;2.90;;
15342;SDS011;7771;48.478;8.936;2023-07-29T01:38:53;3.35;;;2.10;;
15342;SDS011;7771;48.478;8.936;2023-07-29T01:41:20;4.57;;;2.15;;
15342;SDS011;7771;48.478;8.936;2023-07-29T01:43:46;4.95;;;2.62;;
15342;SDS011;7771;48.478;8.936;2023-07-29T01:46:14;4.32;;;2.30;;
15342;SDS011;7771;48.478;8.936;2023-07-29T01:48:41;3.58;;;1.98;;
15342;SDS011;7771;48.478;8.936;2023-07-29T01:51:08;4.85;;;2.40;;
15342;SDS011;7771;48.478;8.936;2023-07-29T01:53:34;5.15;;;2.70;;
15342;SDS011;7771;48.478;8.936;2023-07-29T01:56:01;6.30;;;3.00;;
15342;SDS011;7771;48.478;8.936;2023-07-29T01:58:28;4.70;;;2.70;;
15342;SDS011;7771;48.478;8.936;2023-07-29T02:00:54;3.40;;;3.00;;
15342;SDS011;7771;48.478;8.936;2023-07-29T02:03:22;4.62;;;2.95;;
15342;SDS011;7771;48.478;8.936;2023-07-29T02:05:49;4.43;;;2.45;;
15342;SDS011;7771;48.478;8.936;2023-07-29T02:08:16;3.00;;;2.50;;
15342;SDS011;7771;48.478;8.936;2023-07-29T02:10:43;5.72;;;2.78;;
15342;SDS011;7771;48.478;8.936;2023-07-29T02:13:11;3.87;;;2.20;;
15342;SDS011;7771;48.478;8.936;2023-07-29T02:15:37;3.12;;;2.03;;
15342;SDS011;7771;48.478;8.936;2023-07-29T02:18:05;2.58;;;1.90;;
15342;SDS011;7771;48.478;8.936;2023-07-29T02:20:33;4.12;;;1.67;;
15342;SDS011;7771;48.478;8.936;2023-07-29T02:22:59;3.03;;;2.30;;
15342;SDS011;7771;48.478;8.936;2023-07-29T02:25:26;4.93;;;2.40;;
15342;SDS011;7771;48.478;8.936;2023-07-29T02:27:53;7.70;;;2.72;;
15342;SDS011;7771;48.478;8.936;2023-07-29T02:30:20;5.05;;;2.33;;
15342;SDS011;7771;48.478;8.936;2023-07-29T02:32:46;2.50;;;2.00;;
15342;SDS011;7771;48.478;8.936;2023-07-29T02:35:13;2.73;;;2.20;;
15342;SDS011;7771;48.478;8.936;2023-07-29T02:37:42;2.97;;;2.30;;
15342;SDS011;7771;48.478;8.936;2023-07-29T02:40:08;2.92;;;1.80;;
15342;SDS011;7771;48.478;8.936;2023-07-29T02:42:36;2.25;;;1.70;;
15342;SDS011;7771;48.478;8.936;2023-07-29T02:45:02;6.62;;;2.20;;
15342;SDS011;7771;48.478;8.936;2023-07-29T02:47:30;2.92;;;1.67;;
15342;SDS011;7771;48.478;8.936;2023-07-29T02:49:58;3.37;;;1.90;;
15342;SDS011;7771;48.478;8.936;2023-07-29T02:52:25;3.83;;;1.48;;
15342;SDS011;7771;48.478;8.936;2023-07-29T02:54:51;3.28;;;2.00;;
15342;SDS011;7771;48.478;8.936;2023-07-29T02:57:19;3.03;;;1.62;;
15342;SDS011;7771;48.478;8.936;2023-07-29T02:59:46;2.80;;;1.50;;
15342;SDS011;7771;48.478;8.936;2023-07-29T03:02:14;1.62;;;1.23;;
15342;SDS011;7771;48.478;8.936;2023-07-29T03:04:41;3.10;;;1.70;;
15342;SDS011;7771;48.478;8.936;2023-07-29T03:07:09;4.57;;;1.40;;
15342;SDS011;7771;48.478;8.936;2023-07-29T03:09:36;3.83;;;1.60;;
15342;SDS011;7771;48.478;8.936;2023-07-29T03:12:03;3.58;;;1.60;;
15342;SDS011;7771;48.478;8.936;2023-07-29T03:14:31;1.77;;;1.45;;
15342;SDS011;7771;48.478;8.936;2023-07-29T03:16:58;1.73;;;1.40;;
15342;SDS011;7771;48.478;8.936;2023-07-29T03:19:25;5.18;;;1.85;;
15342;SDS011;7771;48.478;8.936;2023-07-29T03:21:53;4.93;;;1.87;;
15342;SDS011;7771;48.478;8.936;2023-07-29T03:24:20;2.42;;;1.52;;
15342;SDS011;7771;48.478;8.936;2023-07-29T03:26:46;3.47;;;1.77;;
15342;SDS011;7771;48.478;8.936;2023-07-29T03:29:14;2.17;;;1.50;;
15342;SDS011;7771;48.478;8.936;2023-07-29T03:31:41;3.08;;;1.45;;
15342;SDS011;7771;48.478;8.936;2023-07-29T03:34:08;2.40;;;1.62;;
15342;SDS011;7771;48.478;8.936;2023-07-29T03:36:34;3.83;;;1.77;;
15342;SDS011;7771;48.478;8.936;2023-07-29T03:39:02;3.22;;;1.77;;
15342;SDS011;7771;48.478;8.936;2023-07-29T03:41:28;2.28;;;2.08;;
15342;SDS011;7771;48.478;8.936;2023-07-29T03:43:56;2.42;;;2.10;;
15342;SDS011;7771;48.478;8.936;2023-07-29T03:46:23;1.80;;;1.70;;
15342;SDS011;7771;48.478;8.936;2023-07-29T03:48:50;2.35;;;1.80;;
15342;SDS011;7771;48.478;8.936;2023-07-29T03:51:17;2.08;;;1.87;;
15342;SDS011;7771;48.478;8.936;2023-07-29T03:53:43;3.30;;;1.75;;
15342;SDS011;7771;48.478;8.936;2023-07-29T03:56:11;2.80;;;1.98;;
15342;SDS011;7771;48.478;8.936;2023-07-29T03:58:38;3.10;;;1.60;;
15342;SDS011;7771;48.478;8.936;2023-07-29T04:01:06;3.62;;;1.95;;
15342;SDS011;7771;48.478;8.936;2023-07-29T04:03:33;3.42;;;2.10;;
15342;SDS011;7771;48.478;8.936;2023-07-29T04:06:00;6.12;;;1.87;;
15342;SDS011;7771;48.478;8.936;2023-07-29T04:08:27;5.20;;;2.05;;
15342;SDS011;7771;48.478;8.936;2023-07-29T04:10:54;2.83;;;2.03;;
15342;SDS011;7771;48.478;8.936;2023-07-29T04:13:21;2.33;;;1.80;;
15342;SDS011;7771;48.478;8.936;2023-07-29T04:15:49;4.12;;;1.85;;
15342;SDS011;7771;48.478;8.936;2023-07-29T04:18:16;9.02;;;2.00;;
15342;SDS011;7771;48.478;8.936;2023-07-29T04:20:42;5.07;;;2.08;;
15342;SDS011;7771;48.478;8.936;2023-07-29T04:23:10;2.70;;;1.70;;
15342;SDS011;7771;48.478;8.936;2023-07-29T04:25:36;4.65;;;1.92;;
15342;SDS011;7771;48.478;8.936;2023-07-29T04:28:04;3.90;;;1.90;;
15342;SDS011;7771;48.478;8.936;2023-07-29T04:30:30;1.95;;;1.75;;
15342;SDS011;7771;48.478;8.936;2023-07-29T04:32:59;2.65;;;1.87;;
15342;SDS011;7771;48.478;8.936;2023-07-29T04:35:26;3.30;;;1.70;;
15342;SDS011;7771;48.478;8.936;2023-07-29T04:37:54;2.00;;;1.80;;
15342;SDS011;7771;48.478;8.936;2023-07-29T04:40:21;2.28;;;1.83;;
15342;SDS011;7771;48.478;8.936;2023-07-29T04:42:48;2.87;;;1.75;;
15342;SDS011;7771;48.478;8.936;2023-07-29T04:45:15;2.35;;;1.98;;
15342;SDS011;7771;48.478;8.936;2023-07-29T04:47:42;2.30;;;2.10;;
15342;SDS011;7771;48.478;8.936;2023-07-29T04:50:09;1.58;;;1.48;;
15342;SDS011;7771;48.478;8.936;2023-07-29T04:52:37;2.58;;;1.42;;
15342;SDS011;7771;48.478;8.936;2023-07-29T04:55:03;4.70;;;1.67;;
15342;SDS011;7771;48.478;8.936;2023-07-29T04:57:31;2.40;;;1.75;;
15342;SDS011;7771;48.478;8.936;2023-07-29T04:59:57;5.97;;;2.42;;
15342;SDS011;7771;48.478;8.936;2023-07-29T05:02:25;4.20;;;1.95;;
15342;SDS011;7771;48.478;8.936;2023-07-29T05:04:53;5.62;;;2.20;;
15342;SDS011;7771;48.478;8.936;2023-07-29T05:07:21;3.72;;;2.10;;
15342;SDS011;7771;48.478;8.936;2023-07-29T05:09:48;3.40;;;1.95;;
15342;SDS011;7771;48.478;8.936;2023-07-29T05:12:14;3.97;;;2.25;;
15342;SDS011;7771;48.478;8.936;2023-07-29T05:14:41;5.07;;;2.12;;
15342;SDS011;7771;48.478;8.936;2023-07-29T05:17:08;3.33;;;2.50;;
15342;SDS011;7771;48.478;8.936;2023-07-29T05:19:35;6.45;;;2.53;;
15342;SDS011;7771;48.478;8.936;2023-07-29T05:22:02;6.07;;;2.20;;
15342;SDS011;7771;48.478;8.936;2023-07-29T05:24:30;3.45;;;2.17;;
15342;SDS011;7771;48.478;8.936;2023-07-29T05:26:58;4.60;;;2.65;;
15342;SDS011;7771;48.478;8.936;2023-07-29T05:29:24;5.25;;;2.60;;
15342;SDS011;7771;48.478;8.936;2023-07-29T05:31:51;3.50;;;2.12;;
15342;SDS011;7771;48.478;8.936;2023-07-29T05:34:18;6.72;;;2.60;;
15342;SDS011;7771;48.478;8.936;2023-07-29T05:36:45;4.75;;;2.80;;
15342;SDS011;7771;48.478;8.936;2023-07-29T05:39:13;8.82;;;2.50;;
15342;SDS011;7771;48.478;8.936;2023-07-29T05:41:40;8.25;;;2.62;;
15342;SDS011;7771;48.478;8.936;2023-07-29T05:44:07;6.15;;;2.12;;
15342;SDS011;7771;48.478;8.936;2023-07-29T05:46:35;6.35;;;2.50;;
15342;SDS011;7771;48.478;8.936;2023-07-29T05:49:03;3.12;;;2.08;;
15342;SDS011;7771;48.478;8.936;2023-07-29T05:51:31;12.50;;;2.30;;
15342;SDS011;7771;48.478;8.936;2023-07-29T05:56:44;2.80;;;1.92;;
15342;SDS011;7771;48.478;8.936;2023-07-29T05:59:11;2.90;;;2.10;;
15342;SDS011;7771;48.478;8.936;2023-07-29T06:01:38;8.05;;;2.22;;
15342;SDS011;7771;48.478;8.936;2023-07-29T06:04:05;3.90;;;2.45;;
15342;SDS011;7771;48.478;8.936;2023-07-29T06:06:33;1.85;;;1.73;;
15342;SDS011;7771;48.478;8.936;2023-07-29T06:09:01;2.70;;;2.00;;
15342;SDS011;7771;48.478;8.936;2023-07-29T06:11:28;5.90;;;2.33;;
15342;SDS011;7771;48.478;8.936;2023-07-29T06:13:54;5.28;;;2.37;;
15342;SDS011;7771;48.478;8.936;2023-07-29T06:19:08;4.10;;;2.33;;
15342;SDS011;7771;48.478;8.936;2023-07-29T06:21:35;5.18;;;2.40;;
15342;SDS011;7771;48.478;8.936;2023-07-29T06:24:02;5.37;;;2.65;;
15342;SDS011;7771;48.478;8.936;2023-07-29T06:26:30;8.25;;;2.65;;
15342;SDS011;7771;48.478;8.936;2023-07-29T06:28:57;4.93;;;2.67;;
15342;SDS011;7771;48.478;8.936;2023-07-29T06:31:23;4.10;;;2.12;;
15342;SDS011;7771;48.478;8.936;2023-07-29T06:33:50;5.35;;;2.47;;
15342;SDS011;7771;48.478;8.936;2023-07-29T06:36:17;2.80;;;2.12;;
15342;SDS011;7771;48.478;8.936;2023-07-29T06:38:43;4.72;;;3.03;;
15342;SDS011;7771;48.478;8.936;2023-07-29T06:41:12;6.35;;;2.62;;
15342;SDS011;7771;48.478;8.936;2023-07-29T06:43:39;6.20;;;3.60;;
15342;SDS011;7771;48.478;8.936;2023-07-29T06:46:05;5.53;;;3.33;;
15342;SDS011;7771;48.478;8.936;2023-07-29T06:48:34;6.95;;;3.08;;
15342;SDS011;7771;48.478;8.936;2023-07-29T06:51:00;6.25;;;3.12;;
15342;SDS011;7771;48.478;8.936;2023-07-29T06:53:27;4.18;;;2.72;;
15342;SDS011;7771;48.478;8.936;2023-07-29T06:55:54;5.37;;;2.70;;
15342;SDS011;7771;48.478;8.936;2023-07-29T06:58:22;5.40;;;2.37;;
15342;SDS011;7771;48.478;8.936;2023-07-29T07:00:49;7.22;;;3.12;;
15342;SDS011;7771;48.478;8.936;2023-07-29T07:03:16;4.20;;;3.15;;
15342;SDS011;7771;48.478;8.936;2023-07-29T07:05:44;5.40;;;2.85;;
15342;SDS011;7771;48.478;8.936;2023-07-29T07:08:10;7.57;;;2.90;;
15342;SDS011;7771;48.478;8.936;2023-07-29T07:10:38;7.30;;;3.12;;
15342;SDS011;7771;48.478;8.936;2023-07-29T07:13:06;5.82;;;3.15;;
15342;SDS011;7771;48.478;8.936;2023-07-29T07:15:32;4.53;;;2.70;;
15342;SDS011;7771;48.478;8.936;2023-07-29T07:18:00;4.62;;;3.17;;
15342;SDS011;7771;48.478;8.936;2023-07-29T07:20:27;4.12;;;3.03;;
15342;SDS011;7771;48.478;8.936;2023-07-29T07:22:54;5.47;;;3.20;;
15342;SDS011;7771;48.478;8.936;2023-07-29T07:25:21;7.57;;;3.37;;
15342;SDS011;7771;48.478;8.936;2023-07-29T07:27:47;7.57;;;3.53;;
15342;SDS011;7771;48.478;8.936;2023-07-29T07:30:14;6.50;;;3.10;;
15342;SDS011;7771;48.478;8.936;2023-07-29T07:32:41;3.83;;;2.80;;
15342;SDS011;7771;48.478;8.936;2023-07-29T07:35:08;4.70;;;2.50;;
15342;SDS011;7771;48.478;8.936;2023-07-29T07:37:35;6.68;;;3.37;;
15342;SDS011;7771;48.478;8.936;2023-07-29T07:40:02;3.40;;;2.50;;
15342;SDS011;7771;48.478;8.936;2023-07-29T07:42:29;6.25;;;2.03;;
15342;SDS011;7771;48.478;8.936;2023-07-29T07:44:56;4.57;;;2.80;;
15342;SDS011;7771;48.478;8.936;2023-07-29T07:47:23;3.60;;;2.40;;
15342;SDS011;7771;48.478;8.936;2023-07-29T07:49:50;2.80;;;2.37;;
15342;SDS011;7771;48.478;8.936;2023-07-29T07:52:16;3.30;;;2.30;;
15342;SDS011;7771;48.478;8.936;2023-07-29T07:54:43;3.28;;;1.98;;
15342;SDS011;7771;48.478;8.936;2023-07-29T07:57:10;3.37;;;2.15;;
15342;SDS011;7771;48.478;8.936;2023-07-29T07:59:37;3.40;;;2.15;;
15342;SDS011;7771;48.478;8.936;2023-07-29T08:02:04;2.40;;;2.17;;
15342;SDS011;7771;48.478;8.936;2023-07-29T08:04:31;3.60;;;1.92;;
15342;SDS011;7771;48.478;8.936;2023-07-29T08:06:58;3.87;;;2.05;;
15342;SDS011;7771;48.478;8.936;2023-07-29T08:09:26;2.50;;;1.65;;
15342;SDS011;7771;48.478;8.936;2023-07-29T08:11:52;4.18;;;1.80;;
15342;SDS011;7771;48.478;8.936;2023-07-29T08:14:20;2.67;;;2.12;;
15342;SDS011;7771;48.478;8.936;2023-07-29T08:16:47;2.78;;;1.90;;
15342;SDS011;7771;48.478;8.936;2023-07-29T08:19:14;2.92;;;1.60;;
15342;SDS011;7771;48.478;8.936;2023-07-29T08:21:41;2.58;;;1.40;;
15342;SDS011;7771;48.478;8.936;2023-07-29T08:24:07;2.47;;;1.80;;
15342;SDS011;7771;48.478;8.936;2023-07-29T08:26:36;2.20;;;1.87;;
15342;SDS011;7771;48.478;8.936;2023-07-29T08:29:03;2.37;;;2.17;;
15342;SDS011;7771;48.478;8.936;2023-07-29T08:31:31;2.10;;;1.87;;
15342;SDS011;7771;48.478;8.936;2023-07-29T08:33:57;2.40;;;2.05;;
15342;SDS011;7771;48.478;8.936;2023-07-29T08:36:25;3.00;;;1.85;;
15342;SDS011;7771;48.478;8.936;2023-07-29T08:38:53;2.42;;;1.73;;
15342;SDS011;7771;48.478;8.936;2023-07-29T08:41:21;2.67;;;1.75;;
15342;SDS011;7771;48.478;8.936;2023-07-29T08:43:50;2.10;;;1.67;;
15342;SDS011;7771;48.478;8.936;2023-07-29T08:46:16;2.40;;;1.95;;
15342;SDS011;7771;48.478;8.936;2023-07-29T08:48:43;1.90;;;1.60;;
15342;SDS011;7771;48.478;8.936;2023-07-29T08:51:10;1.92;;;1.70;;
15342;SDS011;7771;48.478;8.936;2023-07-29T08:53:37;2.40;;;1.73;;
15342;SDS011;7771;48.478;8.936;2023-07-29T08:56:04;2.58;;;1.60;;
15342;SDS011;7771;48.478;8.936;2023-07-29T08:58:31;3.78;;;1.80;;
15342;SDS011;7771;48.478;8.936;2023-07-29T09:00:57;2.00;;;1.60;;
15342;SDS011;7771;48.478;8.936;2023-07-29T09:03:24;2.75;;;1.60;;
15342;SDS011;7771;48.478;8.936;2023-07-29T09:05:51;2.05;;;1.73;;
15342;SDS011;7771;48.478;8.936;2023-07-29T09:08:18;3.42;;;1.70;;
15342;SDS011;7771;48.478;8.936;2023-07-29T09:10:45;2.33;;;1.80;;
15342;SDS011;7771;48.478;8.936;2023-07-29T09:13:11;1.95;;;1.80;;
15342;SDS011;7771;48.478;8.936;2023-07-29T09:15:39;1.73;;;1.60;;
15342;SDS011;7771;48.478;8.936;2023-07-29T09:18:21;2.45;;;2.22;;
15342;SDS011;7771;48.478;8.936;2023-07-29T09:20:48;3.65;;;1.50;;
15342;SDS011;7771;48.478;8.936;2023-07-29T09:23:15;2.92;;;1.95;;
15342;SDS011;7771;48.478;8.936;2023-07-29T09:25:41;3.35;;;2.00;;
15342;SDS011;7771;48.478;8.936;2023-07-29T09:28:10;2.60;;;2.10;;
15342;SDS011;7771;48.478;8.936;2023-07-29T09:30:37;1.92;;;1.73;;
15342;SDS011;7771;48.478;8.936;2023-07-29T09:33:04;2.58;;;1.92;;
15342;SDS011;7771;48.478;8.936;2023-07-29T09:35:32;3.28;;;1.75;;
15342;SDS011;7771;48.478;8.936;2023-07-29T09:37:57;2.67;;;1.50;;
15342;SDS011;7771;48.478;8.936;2023-07-29T09:40:24;1.90;;;1.50;;
15342;SDS011;7771;48.478;8.936;2023-07-29T09:42:52;3.22;;;1.80;;
15342;SDS011;7771;48.478;8.936;2023-07-29T09:45:20;2.95;;;1.60;;
15342;SDS011;7771;48.478;8.936;2023-07-29T09:47:46;2.58;;;1.70;;
15342;SDS011;7771;48.478;8.936;2023-07-29T09:50:14;2.15;;;1.70;;
15342;SDS011;7771;48.478;8.936;2023-07-29T09:52:40;3.30;;;1.80;;
15342;SDS011;7771;48.478;8.936;2023-07-29T09:55:07;1.92;;;1.73;;
15342;SDS011;7771;48.478;8.936;2023-07-29T09:57:35;1.95;;;1.70;;
15342;SDS011;7771;48.478;8.936;2023-07-29T10:00:02;2.53;;;1.52;;
15342;SDS011;7771;48.478;8.936;2023-07-29T10:02:30;2.92;;;1.80;;
15342;SDS011;7771;48.478;8.936;2023-07-29T10:04:58;1.85;;;1.52;;
15342;SDS011;7771;48.478;8.936;2023-07-29T10:07:24;2.20;;;1.87;;
15342;SDS011;7771;48.478;8.936;2023-07-29T10:09:51;2.47;;;2.10;;
15342;SDS011;7771;48.478;8.936;2023-07-29T10:12:17;3.05;;;1.62;;
15342;SDS011;7771;48.478;8.936;2023-07-29T10:14:45;2.37;;;1.67;;
15342;SDS011;7771;48.478;8.936;2023-07-29T10:17:12;2.03;;;1.80;;
15342;SDS011;7771;48.478;8.936;2023-07-29T10:19:39;2.42;;;1.80;;
15342;SDS011;7771;48.478;8.936;2023-07-29T10:22:07;1.83;;;1.70;;
15342;SDS011;7771;48.478;8.936;2023-07-29T10:24:34;1.80;;;1.70;;
15342;SDS011;7771;48.478;8.936;2023-07-29T10:27:01;1.98;;;1.77;;
15342;SDS011;7771;48.478;8.936;2023-07-29T10:29:30;3.22;;;1.90;;
15342;SDS011;7771;48.478;8.936;2023-07-29T10:31:56;1.62;;;1.52;;
15342;SDS011;7771;48.478;8.936;2023-07-29T10:34:23;2.53;;;1.98;;
15342;SDS011;7771;48.478;8.936;2023-07-29T10:36:49;2.00;;;1.77;;
15342;SDS011;7771;48.478;8.936;2023-07-29T10:39:16;2.25;;;1.62;;
15342;SDS011;7771;48.478;8.936;2023-07-29T10:44:58;4.05;;;1.90;;
15342;SDS011;7771;48.478;8.936;2023-07-29T10:47:18;1.70;;;1.60;;
15342;SDS011;7771;48.478;8.936;2023-07-29T10:49:45;1.92;;;1.62;;
15342;SDS011;7771;48.478;8.936;2023-07-29T10:52:13;2.45;;;1.77;;
15342;SDS011;7771;48.478;8.936;2023-07-29T10:57:16;2.47;;;1.85;;
15342;SDS011;7771;48.478;8.936;2023-07-29T11:00:02;2.78;;;1.95;;
15342;SDS011;7771;48.478;8.936;2023-07-29T11:02:31;2.30;;;2.05;;
15342;SDS011;7771;48.478;8.936;2023-07-29T11:04:57;2.35;;;2.03;;
15342;SDS011;7771;48.478;8.936;2023-07-29T11:07:25;2.20;;;1.70;;
15342;SDS011;7771;48.478;8.936;2023-07-29T11:09:56;2.03;;;1.83;;
15342;SDS011;7771;48.478;8.936;2023-07-29T11:15:02;2.17;;;1.98;;
15342;SDS011;7771;48.478;8.936;2023-07-29T11:17:31;2.47;;;1.90;;
15342;SDS011;7771;48.478;8.936;2023-07-29T11:19:57;2.00;;;1.85;;
15342;SDS011;7771;48.478;8.936;2023-07-29T11:22:25;2.28;;;2.00;;
15342;SDS011;7771;48.478;8.936;2023-07-29T11:24:52;1.80;;;1.70;;
15342;SDS011;7771;48.478;8.936;2023-07-29T11:27:19;2.78;;;2.25;;
15342;SDS011;7771;48.478;8.936;2023-07-29T11:29:46;3.62;;;2.08;;
15342;SDS011;7771;48.478;8.936;2023-07-29T11:32:13;2.08;;;1.87;;
15342;SDS011;7771;48.478;8.936;2023-07-29T11:34:41;1.40;;;1.15;;
15342;SDS011;7771;48.478;8.936;2023-07-29T11:37:10;1.90;;;1.80;;
15342;SDS011;7771;48.478;8.936;2023-07-29T11:39:39;1.50;;;1.40;;
15342;SDS011;7771;48.478;8.936;2023-07-29T11:42:06;2.00;;;1.62;;
15342;SDS011;7771;48.478;8.936;2023-07-29T11:44:32;3.78;;;3.30;;
15342;SDS011;7771;48.478;8.936;2023-07-29T11:47:00;2.17;;;1.98;;
15342;SDS011;7771;48.478;8.936;2023-07-29T11:49:28;2.42;;;1.92;;
15342;SDS011;7771;48.478;8.936;2023-07-29T11:51:54;1.85;;;1.70;;
15342;SDS011;7771;48.478;8.936;2023-07-29T11:54:22;2.30;;;1.90;;
15342;SDS011;7771;48.478;8.936;2023-07-29T11:56:49;7.57;;;3.17;;
15342;SDS011;7771;48.478;8.936;2023-07-29T11:59:16;2.45;;;2.08;;
15342;SDS011;7771;48.478;8.936;2023-07-29T12:01:43;3.87;;;1.90;;
15342;SDS011;7771;48.478;8.936;2023-07-29T12:04:10;2.12;;;1.67;;
15342;SDS011;7771;48.478;8.936;2023-07-29T12:06:39;3.05;;;1.67;;
15342;SDS011;7771;48.478;8.936;2023-07-29T12:09:06;4.70;;;1.80;;
15342;SDS011;7771;48.478;8.936;2023-07-29T12:11:33;1.98;;;1.85;;
15342;SDS011;7771;48.478;8.936;2023-07-29T12:14:00;3.28;;;1.83;;
15342;SDS011;7771;48.478;8.936;2023-07-29T12:16:28;2.08;;;1.87;;
15342;SDS011;7771;48.478;8.936;2023-07-29T12:18:55;1.70;;;1.60;;
15342;SDS011;7771;48.478;8.936;2023-07-29T12:21:23;4.50;;;1.75;;
15342;SDS011;7771;48.478;8.936;2023-07-29T12:23:50;2.83;;;1.70;;
15342;SDS011;7771;48.478;8.936;2023-07-29T12:26:17;1.80;;;1.67;;
15342;SDS011;7771;48.478;8.936;2023-07-29T12:28:46;3.55;;;1.83;;
15342;SDS011;7771;48.478;8.936;2023-07-29T12:31:13;2.40;;;1.87;;
15342;SDS011;7771;48.478;8.936;2023-07-29T12:33:40;2.10;;;1.90;;
15342;SDS011;7771;48.478;8.936;2023-07-29T12:36:07;2.22;;;1.83;;
15342;SDS011;7771;48.478;8.936;2023-07-29T12:38:34;3.15;;;1.80;;
15342;SDS011;7771;48.478;8.936;2023-07-29T12:41:00;2.97;;;1.95;;
15342;SDS011;7771;48.478;8.936;2023-07-29T12:43:27;1.90;;;1.80;;
15342;SDS011;7771;48.478;8.936;2023-07-29T12:45:54;2.37;;;2.08;;
15342;SDS011;7771;48.478;8.936;2023-07-29T12:48:22;3.33;;;2.00;;
15342;SDS011;7771;48.478;8.936;2023-07-29T12:50:49;1.92;;;1.83;;
15342;SDS011;7771;48.478;8.936;2023-07-29T12:53:16;2.28;;;2.08;;
15342;SDS011;7771;48.478;8.936;2023-07-29T12:55:43;2.33;;;2.12;;
15342;SDS011;7771;48.478;8.936;2023-07-29T12:58:09;1.92;;;1.80;;
15342;SDS011;7771;48.478;8.936;2023-07-29T13:00:38;2.60;;;1.92;;
15342;SDS011;7771;48.478;8.936;2023-07-29T13:03:05;1.80;;;1.70;;
15342;SDS011;7771;48.478;8.936;2023-07-29T13:08:17;1.95;;;1.83;;
15342;SDS011;7771;48.478;8.936;2023-07-29T13:10:44;2.17;;;1.90;;
15342;SDS011;7771;48.478;8.936;2023-07-29T13:13:10;2.10;;;1.92;;
15342;SDS011;7771;48.478;8.936;2023-07-29T13:15:37;3.50;;;1.87;;
15342;SDS011;7771;48.478;8.936;2023-07-29T13:18:04;2.00;;;1.87;;
15342;SDS011;7771;48.478;8.936;2023-07-29T13:20:31;2.65;;;1.90;;
15342;SDS011;7771;48.478;8.936;2023-07-29T13:22:58;2.00;;;1.80;;
15342;SDS011;7771;48.478;8.936;2023-07-29T13:25:26;2.22;;;1.87;;
15342;SDS011;7771;48.478;8.936;2023-07-29T13:27:53;2.92;;;1.90;;
15342;SDS011;7771;48.478;8.936;2023-07-29T13:30:20;2.30;;;1.98;;
15342;SDS011;7771;48.478;8.936;2023-07-29T13:32:46;3.15;;;1.90;;
15342;SDS011;7771;48.478;8.936;2023-07-29T13:35:14;2.28;;;1.80;;
15342;SDS011;7771;48.478;8.936;2023-07-29T13:37:41;1.80;;;1.70;;
15342;SDS011;7771;48.478;8.936;2023-07-29T13:40:08;2.37;;;1.90;;
15342;SDS011;7771;48.478;8.936;2023-07-29T13:42:36;2.53;;;1.90;;
15342;SDS011;7771;48.478;8.936;2023-07-29T13:45:04;2.35;;;2.00;;
15342;SDS011;7771;48.478;8.936;2023-07-29T13:47:31;2.95;;;2.17;;
15342;SDS011;7771;48.478;8.936;2023-07-29T13:49:57;2.40;;;2.20;;
15342;SDS011;7771;48.478;8.936;2023-07-29T13:52:24;2.03;;;1.83;;
15342;SDS011;7771;48.478;8.936;2023-07-29T13:54:51;2.28;;;2.08;;
15342;SDS011;7771;48.478;8.936;2023-07-29T13:57:17;2.42;;;2.00;;
15342;SDS011;7771;48.478;8.936;2023-07-29T13:59:44;2.30;;;2.10;;
15342;SDS011;7771;48.478;8.936;2023-07-29T14:02:11;1.87;;;1.67;;
15342;SDS011;7771;48.478;8.936;2023-07-29T14:04:38;2.42;;;2.17;;
15342;SDS011;7771;48.478;8.936;2023-07-29T14:07:05;2.87;;;2.10;;
15342;SDS011;7771;48.478;8.936;2023-07-29T14:09:32;2.15;;;1.95;;
15342;SDS011;7771;48.478;8.936;2023-07-29T14:11:59;2.30;;;2.10;;
15342;SDS011;7771;48.478;8.936;2023-07-29T14:14:26;2.20;;;2.00;;
15342;SDS011;7771;48.478;8.936;2023-07-29T14:16:53;2.33;;;1.98;;
15342;SDS011;7771;48.478;8.936;2023-07-29T14:19:21;2.10;;;1.90;;
15342;SDS011;7771;48.478;8.936;2023-07-29T14:21:48;1.98;;;1.70;;
15342;SDS011;7771;48.478;8.936;2023-07-29T14:24:16;2.20;;;1.90;;
15342;SDS011;7771;48.478;8.936;2023-07-29T14:26:43;2.08;;;1.98;;
15342;SDS011;7771;48.478;8.936;2023-07-29T14:29:10;2.67;;;1.83;;
15342;SDS011;7771;48.478;8.936;2023-07-29T14:31:36;2.42;;;1.92;;
15342;SDS011;7771;48.478;8.936;2023-07-29T14:34:04;2.28;;;2.00;;
15342;SDS011;7771;48.478;8.936;2023-07-29T14:36:31;1.98;;;1.83;;
15342;SDS011;7771;48.478;8.936;2023-07-29T14:38:58;2.65;;;1.90;;
15342;SDS011;7771;48.478;8.936;2023-07-29T14:41:25;2.55;;;1.83;;
15342;SDS011;7771;48.478;8.936;2023-07-29T14:43:53;2.95;;;1.90;;
15342;SDS011;7771;48.478;8.936;2023-07-29T14:46:20;2.08;;;1.87;;
15342;SDS011;7771;48.478;8.936;2023-07-29T14:48:47;1.98;;;1.87;;
15342;SDS011;7771;48.478;8.936;2023-07-29T14:51:14;2.87;;;1.95;;
15342;SDS011;7771;48.478;8.936;2023-07-29T14:53:42;2.10;;;1.90;;
15342;SDS011;7771;48.478;8.936;2023-07-29T14:56:09;2.55;;;1.80;;
15342;SDS011;7771;48.478;8.936;2023-07-29T14:58:36;2.20;;;1.77;;
15342;SDS011;7771;48.478;8.936;2023-07-29T15:01:02;2.33;;;2.10;;
15342;SDS011;7771;48.478;8.936;2023-07-29T15:03:29;2.03;;;1.77;;
15342;SDS011;7771;48.478;8.936;2023-07-29T15:05:56;2.37;;;1.98;;
15342;SDS011;7771;48.478;8.936;2023-07-29T15:08:22;2.03;;;1.92;;
15342;SDS011;7771;48.478;8.936;2023-07-29T15:10:49;2.50;;;2.10;;
15342;SDS011;7771;48.478;8.936;2023-07-29T15:13:16;2.20;;;2.00;;
15342;SDS011;7771;48.478;8.936;2023-07-29T15:15:43;2.15;;;1.95;;
15342;SDS011;7771;48.478;8.936;2023-07-29T15:18:10;2.47;;;2.15;;